KRHI/RHI METAR and TAF weather

Enter ICAO airport designator
Station Type Date Time Source
KRHI METAR 2019/10/22 00:53 UTC NOAA

KRHI 220053Z AUTO 21012G19KT 10SM FEW050 BKN065 11/08 A2927 RMK AO2 SLP917 T01110083


Station Type Date Time Source
KRHI Decoded METAR 2019/10/22 00:53 UTC NOAA

RHINELANDER-ONEIDA CO AIRPORT , WI, United States (KRHI) 45-38N 89-29W 485M
Oct 21, 2019 - 08:53 PM EDT / 2019.10.22 0053 UTC
Wind: from the SSW (210 degrees) at 14 MPH (12 KT) gusting to 22 MPH (19 KT):0
Visibility: 10 mile(s):0
Sky conditions: mostly cloudy
Temperature: 52.0 F (11.1 C)
Dew Point: 46.9 F (8.3 C)
Relative Humidity: 82%
Pressure (altimeter): 29.27 in. Hg (991 hPa)
ob: KRHI 220053Z AUTO 21012G19KT 10SM FEW050 BKN065 11/08 A2927 RMK AO2 SLP917 T01110083
cycle: 1

Station Type Date Time Source
KRHI TAF 2019/10/22 16:36 UTC NOAA

TAF
AMD KRHI 221535Z 2216/2312 24010KT 6SM -SHRA BR OVC006
FM221700 26012G21KT 6SM -SHRA OVC010
FM230200 26011G20KT P6SM OVC008

Example: see airport list